Time;durP1;ratioP1;P1;durP2;ratioP2;P2;SDS_P1;SDS_P2;PMS_P1;PMS_P2;Temp;Humidity;BMP_temperature;BMP_pressure;BME280_temperature;BME280_humidity;BME280_pressure;Samples;Min_cycle;Max_cycle;Signal;HPM_P1;HPM_P2
2023/02/18 00:01:17;;;;;;;3.03;1.67;;;13.90;57.40;;;;;;5075279;28;20498;-72
2023/02/18 00:03:44;;;;;;;3.07;2.07;;;13.90;57.30;;;;;;5074393;28;20986;-71
2023/02/18 00:06:14;;;;;;;3.20;2.10;;;13.90;57.40;;;;;;5075358;28;20875;-70
2023/02/18 00:08:43;;;;;;;4.77;2.27;;;13.90;57.60;;;;;;5074379;28;20888;-71
2023/02/18 00:11:11;;;;;;;4.00;1.70;;;13.90;57.60;;;;;;5073955;28;20838;-70
2023/02/18 00:13:38;;;;;;;3.30;1.67;;;13.90;57.60;;;;;;5074955;28;20484;-72
2023/02/18 00:16:09;;;;;;;3.10;1.83;;;13.90;57.70;;;;;;5075130;28;20614;-72
2023/02/18 00:18:37;;;;;;;2.97;2.20;;;13.90;57.60;;;;;;5074933;28;20472;-71
2023/02/18 00:21:05;;;;;;;2.60;1.83;;;13.90;57.90;;;;;;5074678;28;20472;-71
2023/02/18 00:23:32;;;;;;;3.80;2.13;;;13.90;57.80;;;;;;5075201;28;20515;-71
2023/02/18 00:26:00;;;;;;;4.40;2.13;;;13.80;57.70;;;;;;5055372;28;20906;-71
2023/02/18 00:28:27;;;;;;;4.70;2.20;;;13.90;57.90;;;;;;5054878;28;20503;-71
2023/02/18 00:30:54;;;;;;;3.37;2.03;;;13.80;57.90;;;;;;5054615;28;20451;-71
2023/02/18 00:33:23;;;;;;;3.83;2.20;;;13.80;58.10;;;;;;5054857;28;20906;-71
2023/02/18 00:35:50;;;;;;;4.23;2.97;;;13.90;58.10;;;;;;5054717;28;20441;-71
2023/02/18 00:38:17;;;;;;;2.90;1.88;;;13.80;58.20;;;;;;5054553;28;20959;-71
2023/02/18 00:40:44;;;;;;;3.30;2.40;;;13.80;58.30;;;;;;5054222;28;20713;-72
2023/02/18 00:43:11;;;;;;;3.30;2.40;;;13.80;58.30;;;;;;5054171;28;20528;-71
2023/02/18 00:45:38;;;;;;;3.73;2.20;;;13.80;58.40;;;;;;5054856;28;20450;-71
2023/02/18 00:48:05;;;;;;;5.00;3.10;;;13.80;58.40;;;;;;5054775;28;20480;-71
2023/02/18 00:50:33;;;;;;;3.83;2.30;;;13.70;58.50;;;;;;5054231;28;20473;-71
2023/02/18 00:53:00;;;;;;;3.87;2.20;;;13.70;58.80;;;;;;5054431;28;20499;-71
2023/02/18 00:55:27;;;;;;;6.33;2.60;;;13.70;58.80;;;;;;5067727;28;20446;-70
2023/02/18 00:57:54;;;;;;;4.80;2.30;;;13.60;59.00;;;;;;5074461;28;20531;-71
2023/02/18 01:00:21;;;;;;;8.27;2.17;;;13.60;59.30;;;;;;5073797;28;20515;-72
2023/02/18 01:02:53;;;;;;;4.20;2.77;;;13.50;59.50;;;;;;5074108;28;20510;-74
2023/02/18 01:05:20;;;;;;;3.50;2.07;;;13.50;59.80;;;;;;5074082;28;20440;-70
2023/02/18 01:07:48;;;;;;;5.55;2.33;;;13.50;60.00;;;;;;5074273;28;20875;-71
2023/02/18 01:10:16;;;;;;;4.13;2.57;;;13.50;60.40;;;;;;5066298;28;20237;-71
2023/02/18 01:12:43;;;;;;;4.63;2.63;;;13.40;60.70;;;;;;5053637;28;20461;-73
2023/02/18 01:15:15;;;;;;;2.77;2.10;;;13.50;61.10;;;;;;5053848;28;20437;-71
2023/02/18 01:17:41;;;;;;;2.75;2.25;;;13.40;61.20;;;;;;5054276;28;20471;-71
2023/02/18 01:20:10;;;;;;;6.03;2.10;;;13.40;61.50;;;;;;5053841;28;20265;-71
2023/02/18 01:22:37;;;;;;;4.80;2.35;;;13.40;61.80;;;;;;5053845;28;20853;-72
2023/02/18 01:25:07;;;;;;;3.60;2.13;;;13.40;61.80;;;;;;5053504;28;20277;-71
2023/02/18 01:27:34;;;;;;;3.30;2.20;;;13.30;61.70;;;;;;5054004;28;20357;-71
2023/02/18 01:30:00;;;;;;;4.35;2.72;;;13.30;61.60;;;;;;5054058;28;20520;-71
2023/02/18 01:32:28;;;;;;;6.07;3.20;;;13.30;61.80;;;;;;5053781;28;20229;-71
2023/02/18 01:34:55;;;;;;;3.70;3.03;;;13.30;61.90;;;;;;5065967;28;20221;-71
2023/02/18 01:37:21;;;;;;;5.53;3.38;;;13.20;61.80;;;;;;5073234;28;20471;-71
2023/02/18 01:39:48;;;;;;;4.80;2.85;;;13.20;61.90;;;;;;5073312;28;20190;-71
2023/02/18 01:42:21;;;;;;;4.77;2.60;;;13.20;61.90;;;;;;5073563;28;20186;-71
2023/02/18 01:44:49;;;;;;;3.90;2.47;;;13.20;63.10;;;;;;5073254;28;20472;-71
2023/02/18 01:47:17;;;;;;;7.40;3.30;;;13.10;62.40;;;;;;5072824;28;20511;-71
2023/02/18 01:49:46;;;;;;;4.15;2.60;;;13.10;62.50;;;;;;5073156;28;20275;-71
2023/02/18 01:52:16;;;;;;;4.95;3.00;;;13.10;62.80;;;;;;5073381;28;20280;-70
2023/02/18 01:54:47;;;;;;;3.78;2.38;;;13.00;62.90;;;;;;5061486;28;20273;-73
2023/02/18 01:57:17;;;;;;;7.38;2.50;;;13.00;63.20;;;;;;5053366;28;20226;-71
2023/02/18 01:59:49;;;;;;;4.68;2.83;;;13.00;63.50;;;;;;5053150;28;20277;-71
2023/02/18 02:02:18;;;;;;;6.33;2.70;;;13.00;63.60;;;;;;5053056;28;20222;-71
2023/02/18 02:04:46;;;;;;;4.70;2.67;;;13.00;63.70;;;;;;5063536;28;20474;-71
2023/02/18 02:07:14;;;;;;;3.53;2.10;;;13.00;63.90;;;;;;5072911;28;20251;-72
2023/02/18 02:09:42;;;;;;;3.90;2.60;;;13.00;64.00;;;;;;5072959;28;20263;-71
2023/02/18 02:12:36;;;;;;;3.10;2.27;;;12.90;63.90;;;;;;5073305;28;20859;-71
2023/02/18 02:15:28;;;;;;;6.10;3.05;;;12.90;64.20;;;;;;5046158;28;20441;-70
2023/02/18 02:18:17;;;;;;;5.40;4.03;;;12.90;64.20;;;;;;5052461;28;20229;-71
2023/02/18 02:21:14;;;;;;;9.27;3.63;;;12.90;64.10;;;;;;5052885;28;20448;-71
2023/02/18 02:24:03;;;;;;;6.45;3.33;;;12.90;64.10;;;;;;5052756;28;20186;-72
2023/02/18 02:27:00;;;;;;;6.10;3.77;;;12.90;64.40;;;;;;5052530;28;20240;-71
2023/02/18 02:29:54;;;;;;;5.57;3.20;;;12.80;64.50;;;;;;5052802;28;20979;-71
2023/02/18 02:32:47;;;;;;;6.75;4.40;;;12.80;64.80;;;;;;5067151;28;20185;-71
2023/02/18 02:35:20;;;;;;;4.80;3.20;;;12.80;65.10;;;;;;5072799;28;20272;-72
2023/02/18 02:37:53;;;;;;;5.57;4.18;;;12.80;65.30;;;;;;5062609;28;20858;-71
2023/02/18 02:40:28;;;;;;;6.57;4.40;;;12.80;65.60;;;;;;5072183;28;20281;-71
2023/02/18 02:43:05;;;;;;;5.40;3.92;;;12.70;65.80;;;;;;5072588;28;20841;-71
2023/02/18 02:45:43;;;;;;;5.20;3.28;;;12.70;66.20;;;;;;5060135;28;20221;-71
2023/02/18 02:48:22;;;;;;;6.18;3.90;;;12.70;66.50;;;;;;5067626;28;20210;-71
2023/02/18 02:50:55;;;;;;;8.32;3.95;;;12.60;66.80;;;;;;5072654;28;20244;-70
2023/02/18 02:53:27;;;;;;;5.55;3.95;;;12.70;67.30;;;;;;5072550;28;20232;-71
2023/02/18 02:55:55;;;;;;;6.50;3.70;;;12.70;67.40;;;;;;5071502;28;20217;-71
2023/02/18 02:58:22;;;;;;;5.82;3.78;;;12.70;67.30;;;;;;5072018;28;20229;-71
2023/02/18 03:01:05;;;;;;;4.43;3.67;;;12.70;67.40;;;;;;5072258;28;20276;-71
2023/02/18 03:03:47;;;;;;;5.00;3.17;;;12.70;67.50;;;;;;5072116;28;20236;-70
2023/02/18 03:06:36;;;;;;;4.75;3.63;;;12.70;67.90;;;;;;5071082;28;20185;-71
2023/02/18 03:09:09;;;;;;;4.72;2.95;;;12.70;68.20;;;;;;5072418;28;20304;-71
2023/02/18 03:11:43;;;;;;;4.85;3.22;;;12.60;68.50;;;;;;5071178;28;20186;-71
2023/02/18 03:14:17;;;;;;;5.18;3.10;;;12.60;68.70;;;;;;5055929;28;20280;-71
2023/02/18 03:16:49;;;;;;;6.75;3.45;;;12.60;68.90;;;;;;5051768;28;20277;-71
2023/02/18 03:19:23;;;;;;;4.82;3.10;;;12.60;69.50;;;;;;5069163;28;20227;-71
2023/02/18 03:21:57;;;;;;;6.82;3.65;;;12.50;69.50;;;;;;5072104;28;20197;-71
2023/02/18 03:24:27;;;;;;;4.85;3.25;;;12.60;69.80;;;;;;5072053;28;20279;-70
2023/02/18 03:26:59;;;;;;;4.37;3.20;;;12.50;69.80;;;;;;5061132;28;20621;-71
2023/02/18 03:29:27;;;;;;;4.65;3.50;;;12.50;69.90;;;;;;5054164;28;20516;-71
2023/02/18 03:31:59;;;;;;;5.30;3.27;;;12.50;70.00;;;;;;5056117;28;20218;-71
2023/02/18 03:34:31;;;;;;;4.95;3.38;;;12.50;70.00;;;;;;5056173;28;20928;-70
2023/02/18 03:37:01;;;;;;;7.32;3.78;;;12.50;70.10;;;;;;5055609;28;20601;-71
2023/02/18 03:39:30;;;;;;;6.13;3.55;;;12.50;70.10;;;;;;5055853;28;20241;-72
2023/02/18 03:41:57;;;;;;;4.88;3.70;;;12.50;70.10;;;;;;5055603;28;20187;-72
2023/02/18 03:44:25;;;;;;;3.85;3.15;;;12.50;70.40;;;;;;5055541;28;20298;-71
2023/02/18 03:46:53;;;;;;;5.80;3.72;;;12.50;70.60;;;;;;5073611;28;20281;-72
2023/02/18 03:49:20;;;;;;;8.32;3.65;;;12.40;70.70;;;;;;5075455;28;20220;-71
2023/02/18 03:51:47;;;;;;;5.15;3.67;;;12.40;70.80;;;;;;5075591;28;20284;-70
2023/02/18 03:54:16;;;;;;;4.55;3.22;;;12.40;70.80;;;;;;5075673;28;20276;-71
2023/02/18 03:56:42;;;;;;;5.15;3.85;;;12.30;70.90;;;;;;5074763;28;20365;-70
2023/02/18 03:59:09;;;;;;;4.20;3.13;;;12.30;71.20;;;;;;5075439;28;20608;-70
2023/02/18 04:01:36;;;;;;;4.68;2.80;;;12.30;71.30;;;;;;5075523;28;20317;-71
2023/02/18 04:04:03;;;;;;;5.82;3.45;;;12.30;71.50;;;;;;5075545;28;20280;-71
2023/02/18 04:06:31;;;;;;;4.25;3.08;;;12.30;71.70;;;;;;5074704;28;20229;-70
2023/02/18 04:08:58;;;;;;;5.97;3.22;;;12.30;71.70;;;;;;5075064;28;20308;-71
2023/02/18 04:11:26;;;;;;;4.78;3.70;;;12.20;71.60;;;;;;5059821;28;20214;-71
2023/02/18 04:13:53;;;;;;;4.30;3.20;;;12.20;71.80;;;;;;5055393;28;20281;-71
2023/02/18 04:16:20;;;;;;;6.15;3.10;;;12.20;72.50;;;;;;5054944;28;20285;-71
2023/02/18 04:18:47;;;;;;;4.50;3.33;;;12.20;72.80;;;;;;5055091;28;20286;-71
2023/02/18 04:21:14;;;;;;;5.75;3.20;;;12.20;73.10;;;;;;5055020;28;20615;-71
2023/02/18 04:23:40;;;;;;;4.57;3.60;;;12.20;73.30;;;;;;5055290;28;20282;-74
2023/02/18 04:26:07;;;;;;;4.43;3.08;;;12.20;73.40;;;;;;5066487;28;20228;-72
2023/02/18 04:28:36;;;;;;;4.78;3.30;;;12.10;73.60;;;;;;5074785;28;20276;-72
2023/02/18 04:31:03;;;;;;;3.25;2.72;;;12.10;73.50;;;;;;5075090;28;20280;-70
2023/02/18 04:33:29;;;;;;;3.88;3.00;;;12.10;73.70;;;;;;5074925;28;20281;-70
2023/02/18 04:35:56;;;;;;;7.30;3.00;;;12.10;74.20;;;;;;5074858;28;20285;-70
2023/02/18 04:38:23;;;;;;;6.43;3.20;;;12.00;74.70;;;;;;5074804;28;20276;-71
2023/02/18 04:40:50;;;;;;;3.65;2.47;;;12.00;74.70;;;;;;5073468;28;20269;-71
2023/02/18 04:43:17;;;;;;;3.78;2.35;;;12.00;74.70;;;;;;5074646;28;20224;-71
2023/02/18 04:45:46;;;;;;;5.30;3.03;;;12.00;74.70;;;;;;5074599;28;20311;-71
2023/02/18 04:48:12;;;;;;;4.82;2.95;;;12.00;75.10;;;;;;5074556;28;20221;-70
2023/02/18 04:50:40;;;;;;;9.40;2.88;;;12.00;75.00;;;;;;5073511;28;20639;-71
2023/02/18 04:53:06;;;;;;;9.95;3.08;;;12.10;75.20;;;;;;5074384;28;20243;-71
2023/02/18 04:55:33;;;;;;;5.75;2.80;;;12.10;75.40;;;;;;5071299;28;20715;-71
2023/02/18 04:58:00;;;;;;;4.40;2.35;;;12.00;75.40;;;;;;5074242;28;20281;-71
2023/02/18 05:00:28;;;;;;;3.90;2.83;;;12.00;75.40;;;;;;5054327;28;20234;-72
2023/02/18 05:02:56;;;;;;;4.32;2.95;;;12.00;75.40;;;;;;5054066;28;20194;-71
2023/02/18 05:05:23;;;;;;;4.40;2.95;;;12.00;75.40;;;;;;5058574;28;20206;-72
2023/02/18 05:07:50;;;;;;;4.60;2.25;;;12.00;75.50;;;;;;5072789;28;20221;-71
2023/02/18 05:10:18;;;;;;;3.60;2.55;;;12.00;75.50;;;;;;5074098;28;20324;-71
2023/02/18 05:12:45;;;;;;;4.03;2.25;;;12.00;75.80;;;;;;5073743;28;20727;-71
2023/02/18 05:15:12;;;;;;;3.80;2.97;;;12.00;75.90;;;;;;5073304;28;20606;-71
2023/02/18 05:17:39;;;;;;;4.75;2.60;;;11.90;76.20;;;;;;5073458;28;20197;-71
2023/02/18 05:20:09;;;;;;;8.23;2.95;;;12.00;76.50;;;;;;5073954;28;20298;-71
2023/02/18 05:22:36;;;;;;;4.38;2.78;;;12.00;76.70;;;;;;5073765;28;20251;-71
2023/02/18 05:25:03;;;;;;;5.15;2.85;;;12.00;76.70;;;;;;5071362;28;20719;-70
2023/02/18 05:27:29;;;;;;;5.63;2.80;;;12.00;76.90;;;;;;5053530;28;20277;-70
2023/02/18 05:29:56;;;;;;;6.10;3.50;;;12.00;77.00;;;;;;5053588;28;20250;-70
2023/02/18 05:32:23;;;;;;;7.82;3.10;;;12.00;77.20;;;;;;5053597;28;20293;-71
2023/02/18 05:34:50;;;;;;;7.82;3.28;;;12.00;77.10;;;;;;5053215;28;20232;-75
2023/02/18 05:37:19;;;;;;;4.03;3.03;;;12.00;77.10;;;;;;5072702;28;20236;-73
2023/02/18 05:39:46;;;;;;;6.47;3.22;;;12.00;77.30;;;;;;5073409;28;20273;-72
2023/02/18 05:42:16;;;;;;;4.20;2.72;;;11.90;77.50;;;;;;5073311;28;20225;-71
2023/02/18 05:44:43;;;;;;;4.03;2.88;;;12.00;77.80;;;;;;5072659;28;20186;-74
2023/02/18 05:47:12;;;;;;;4.53;2.90;;;11.90;77.70;;;;;;5073156;28;20278;-71
2023/02/18 05:49:41;;;;;;;3.58;3.00;;;12.00;77.70;;;;;;5073164;28;20213;-72
2023/02/18 05:52:08;;;;;;;6.93;3.30;;;12.00;77.50;;;;;;5058432;28;20607;-72
2023/02/18 05:54:37;;;;;;;4.17;2.50;;;12.00;77.50;;;;;;5051505;28;20281;-71
2023/02/18 05:57:04;;;;;;;5.45;2.60;;;12.00;77.40;;;;;;5050755;28;20983;-72
2023/02/18 05:59:32;;;;;;;4.75;2.60;;;12.00;77.50;;;;;;5050450;28;20269;-72
2023/02/18 06:01:59;;;;;;;3.05;2.33;;;12.00;77.60;;;;;;5051097;28;20250;-71
2023/02/18 06:04:26;;;;;;;3.40;2.50;;;12.00;77.40;;;;;;5049442;28;20792;-71
2023/02/18 06:06:53;;;;;;;4.32;3.08;;;12.00;77.10;;;;;;5051321;28;20194;-71
2023/02/18 06:09:20;;;;;;;6.75;3.38;;;12.00;77.20;;;;;;5050678;28;20250;-70
2023/02/18 06:11:49;;;;;;;4.32;3.05;;;11.90;76.10;;;;;;5046828;28;20615;-72
2023/02/18 06:14:16;;;;;;;4.93;3.47;;;11.90;76.90;;;;;;5050716;28;20234;-72
2023/02/18 06:16:43;;;;;;;5.38;3.10;;;11.90;76.80;;;;;;5050107;28;20285;-70
2023/02/18 06:19:10;;;;;;;5.30;3.08;;;11.90;76.60;;;;;;5050590;28;20289;-73
2023/02/18 06:21:37;;;;;;;4.35;2.80;;;11.90;76.40;;;;;;5049858;28;20726;-72
2023/02/18 06:24:04;;;;;;;4.65;2.60;;;11.90;76.00;;;;;;5051228;28;20293;-71
2023/02/18 06:26:31;;;;;;;5.90;3.25;;;11.90;75.80;;;;;;5050997;28;20284;-71
2023/02/18 06:28:59;;;;;;;5.43;3.28;;;11.90;75.70;;;;;;5050814;28;20665;-72
2023/02/18 06:31:26;;;;;;;4.25;3.28;;;11.90;75.70;;;;;;5049175;28;20281;-71
2023/02/18 06:33:53;;;;;;;6.00;3.25;;;11.80;75.50;;;;;;5050444;28;20657;-72
2023/02/18 06:36:20;;;;;;;4.35;2.97;;;11.80;75.50;;;;;;5050905;28;20218;-71
2023/02/18 06:38:47;;;;;;;5.55;3.15;;;11.80;75.50;;;;;;5050208;28;20365;-71
2023/02/18 06:41:15;;;;;;;4.15;2.95;;;11.90;75.50;;;;;;5046083;28;20265;-71
2023/02/18 06:43:42;;;;;;;5.40;3.90;;;11.90;75.20;;;;;;5050763;28;20313;-71
2023/02/18 06:46:10;;;;;;;5.07;3.05;;;12.00;75.50;;;;;;5050966;28;20273;-71
2023/02/18 06:48:37;;;;;;;4.10;2.65;;;12.10;75.70;;;;;;5049998;28;20229;-71
2023/02/18 06:51:05;;;;;;;4.25;2.60;;;12.10;75.50;;;;;;5049979;28;20214;-73
2023/02/18 06:53:32;;;;;;;3.97;3.40;;;12.30;75.20;;;;;;5050446;28;20198;-70
2023/02/18 06:55:59;;;;;;;6.63;3.60;;;12.40;74.70;;;;;;5050659;28;20246;-70
2023/02/18 06:58:26;;;;;;;5.90;4.03;;;12.40;73.70;;;;;;5049825;28;20204;-70
2023/02/18 07:00:53;;;;;;;4.00;2.70;;;12.60;74.10;;;;;;5050255;28;20314;-71
2023/02/18 07:03:21;;;;;;;7.53;3.17;;;12.80;73.50;;;;;;5049736;28;20529;-70
2023/02/18 07:05:48;;;;;;;5.60;3.67;;;12.90;72.50;;;;;;5051571;28;20621;-70
2023/02/18 07:08:15;;;;;;;5.27;3.57;;;13.10;71.80;;;;;;5050039;28;20480;-71
2023/02/18 07:10:42;;;;;;;3.47;2.80;;;13.20;71.20;;;;;;5050246;28;20563;-72
2023/02/18 07:13:09;;;;;;;7.90;3.40;;;13.40;70.70;;;;;;5050018;28;20473;-71
2023/02/18 07:15:36;;;;;;;10.93;3.40;;;13.60;69.60;;;;;;5050245;28;20532;-71
2023/02/18 07:18:03;;;;;;;3.20;2.30;;;13.60;69.00;;;;;;5049543;28;20537;-71
2023/02/18 07:20:31;;;;;;;4.73;2.77;;;13.60;68.60;;;;;;5048647;28;20476;-73
2023/02/18 07:22:59;;;;;;;3.17;2.63;;;13.60;68.30;;;;;;5050276;28;20484;-71
2023/02/18 07:25:26;;;;;;;3.43;2.60;;;13.60;67.70;;;;;;5050227;28;20524;-71
2023/02/18 07:27:53;;;;;;;4.27;2.67;;;13.80;67.80;;;;;;5049811;28;20520;-71
2023/02/18 07:30:21;;;;;;;7.03;4.43;;;14.00;67.30;;;;;;5049967;28;20571;-71
2023/02/18 07:32:48;;;;;;;4.40;2.53;;;14.20;66.60;;;;;;5052001;28;20524;-71
2023/02/18 07:35:15;;;;;;;5.57;4.70;;;14.40;65.60;;;;;;5050200;28;20221;-71
2023/02/18 07:37:46;;;;;;;4.67;2.93;;;14.50;64.80;;;;;;5050744;28;20444;-72
2023/02/18 07:40:15;;;;;;;3.03;2.43;;;14.40;63.80;;;;;;5050231;28;20986;-71
2023/02/18 07:42:42;;;;;;;9.87;5.30;;;14.40;63.70;;;;;;5049659;28;20512;-73
2023/02/18 07:45:10;;;;;;;11.27;4.63;;;14.50;63.60;;;;;;5049462;28;20524;-71
2023/02/18 07:47:37;;;;;;;9.20;5.17;;;14.80;63.60;;;;;;5050079;28;20846;-71
2023/02/18 07:50:06;;;;;;;7.87;3.40;;;15.00;62.40;;;;;;5050083;28;20580;-71
2023/02/18 07:52:33;;;;;;;8.27;3.67;;;15.30;61.00;;;;;;5049641;28;20473;-71
2023/02/18 07:55:01;;;;;;;7.40;4.00;;;15.50;59.80;;;;;;5048848;28;20463;-71
2023/02/18 07:57:29;;;;;;;14.70;9.07;;;15.70;59.60;;;;;;5049815;28;20480;-71
2023/02/18 07:59:56;;;;;;;7.63;4.33;;;16.10;59.00;;;;;;5050013;28;20875;-71
2023/02/18 08:02:24;;;;;;;6.37;2.80;;;16.60;58.00;;;;;;5049277;28;20511;-73
2023/02/18 08:04:51;;;;;;;7.10;4.27;;;17.10;56.80;;;;;;5048975;28;20999;-71
2023/02/18 08:07:20;;;;;;;8.00;4.37;;;17.60;55.40;;;;;;5049650;28;20528;-71
2023/02/18 08:09:49;;;;;;;4.40;2.70;;;18.00;54.10;;;;;;5049650;28;20923;-71
2023/02/18 08:12:17;;;;;;;4.20;2.10;;;18.30;53.10;;;;;;5049905;28;20800;-71
2023/02/18 08:14:44;;;;;;;3.80;2.07;;;18.80;51.60;;;;;;5049380;28;20468;-70
2023/02/18 08:17:11;;;;;;;4.00;1.90;;;19.40;51.20;;;;;;5052739;28;20491;-71
2023/02/18 08:19:38;;;;;;;4.40;1.93;;;19.90;49.50;;;;;;5053595;28;20520;-71
2023/02/18 08:22:05;;;;;;;4.40;2.00;;;20.40;48.20;;;;;;5048266;28;20467;-72
2023/02/18 08:24:32;;;;;;;3.07;1.40;;;21.00;46.70;;;;;;5054289;28;20954;-71
2023/02/18 08:26:59;;;;;;;3.10;1.77;;;21.30;45.00;;;;;;5053178;28;20560;-70
2023/02/18 08:29:27;;;;;;;6.03;2.20;;;21.60;43.60;;;;;;5051603;28;20527;-70
2023/02/18 08:31:56;;;;;;;5.13;3.10;;;21.70;42.70;;;;;;5053036;28;20567;-71
2023/02/18 08:34:23;;;;;;;4.03;2.43;;;21.90;42.30;;;;;;5052065;28;20429;-70
2023/02/18 08:36:50;;;;;;;2.80;1.70;;;22.10;41.60;;;;;;5053044;28;20523;-71
2023/02/18 08:39:16;;;;;;;3.53;1.60;;;22.50;41.10;;;;;;5053166;28;20536;-70
2023/02/18 08:41:43;;;;;;;3.13;1.73;;;22.90;40.30;;;;;;5052675;28;20552;-72
2023/02/18 08:44:10;;;;;;;3.50;2.20;;;23.20;39.70;;;;;;5055106;28;20531;-72
2023/02/18 08:46:39;;;;;;;2.90;1.47;;;23.50;38.80;;;;;;5053290;28;20468;-71
2023/02/18 08:49:06;;;;;;;6.43;3.77;;;23.70;37.70;;;;;;5050029;28;20574;-71
2023/02/18 08:51:37;;;;;;;5.40;3.63;;;23.90;37.40;;;;;;5052615;28;20559;-72
2023/02/18 08:54:04;;;;;;;2.87;1.37;;;24.30;37.30;;;;;;5053211;28;20464;-71
2023/02/18 08:56:32;;;;;;;3.20;1.30;;;24.80;36.30;;;;;;5053186;28;20848;-72
2023/02/18 08:58:59;;;;;;;3.80;1.70;;;25.20;34.80;;;;;;5049737;28;20940;-72
2023/02/18 09:01:26;;;;;;;2.93;1.17;;;25.20;33.80;;;;;;5050807;28;20540;-71
2023/02/18 09:03:54;;;;;;;2.73;1.40;;;24.90;34.00;;;;;;5051679;28;20463;-71
2023/02/18 09:06:21;;;;;;;3.70;1.40;;;24.70;34.20;;;;;;5051736;28;20471;-72
2023/02/18 09:08:48;;;;;;;4.97;1.20;;;24.60;34.30;;;;;;5052096;28;20787;-71
2023/02/18 09:11:16;;;;;;;4.07;1.17;;;24.70;34.20;;;;;;5051508;28;20589;-72
2023/02/18 09:13:43;;;;;;;2.57;1.17;;;24.60;33.50;;;;;;5058000;28;20970;-71
2023/02/18 09:16:13;;;;;;;2.30;1.10;;;24.50;33.70;;;;;;5053476;28;20842;-73
2023/02/18 09:18:41;;;;;;;6.50;1.40;;;24.20;34.30;;;;;;5051416;28;20488;-73
2023/02/18 09:21:12;;;;;;;7.20;3.53;;;24.00;34.10;;;;;;5049687;28;20524;-72
2023/02/18 09:23:40;;;;;;;4.37;2.70;;;23.90;35.40;;;;;;5051695;28;20433;-72
2023/02/18 09:26:09;;;;;;;6.03;4.10;;;23.80;34.70;;;;;;5051754;28;20432;-72
2023/02/18 09:28:36;;;;;;;2.83;1.17;;;23.70;35.00;;;;;;5047914;28;20464;-71
2023/02/18 09:31:08;;;;;;;2.80;1.60;;;23.50;35.10;;;;;;5050669;28;20487;-71
2023/02/18 09:33:36;;;;;;;4.47;1.67;;;23.20;35.10;;;;;;5051687;28;20510;-71
2023/02/18 09:36:06;;;;;;;7.30;1.37;;;22.80;34.90;;;;;;5051636;28;20443;-71
2023/02/18 09:38:35;;;;;;;3.93;1.03;;;22.40;35.90;;;;;;5050924;28;20464;-70
2023/02/18 09:41:06;;;;;;;2.03;1.03;;;22.10;35.80;;;;;;5051574;28;20520;-71
2023/02/18 09:43:36;;;;;;;2.20;1.20;;;21.80;36.40;;;;;;5050496;28;20898;-72
2023/02/18 09:46:09;;;;;;;3.80;1.00;;;21.50;36.90;;;;;;5051537;28;20456;-71
2023/02/18 09:48:38;;;;;;;4.40;1.83;;;21.40;37.60;;;;;;5051193;28;21006;-71
2023/02/18 09:51:05;;;;;;;4.10;1.37;;;21.20;37.40;;;;;;5046648;28;21037;-71
2023/02/18 09:53:33;;;;;;;2.90;1.60;;;20.90;37.40;;;;;;5050945;28;20540;-70
2023/02/18 09:56:01;;;;;;;2.93;1.80;;;20.60;38.20;;;;;;5051376;28;20475;-70
2023/02/18 09:58:33;;;;;;;4.30;2.10;;;20.50;38.60;;;;;;5050990;28;20429;-70
2023/02/18 10:01:05;;;;;;;3.33;1.40;;;20.60;39.30;;;;;;5049824;28;20939;-70
2023/02/18 10:03:32;;;;;;;2.33;1.20;;;21.00;38.90;;;;;;5050442;28;20516;-70
2023/02/18 10:06:03;;;;;;;3.20;1.20;;;21.40;38.40;;;;;;5051497;28;20453;-71
2023/02/18 10:08:34;;;;;;;3.47;1.30;;;21.70;37.80;;;;;;5047635;28;20951;-71
2023/02/18 10:11:03;;;;;;;2.63;1.10;;;22.00;37.00;;;;;;5050588;28;20930;-71
2023/02/18 10:13:33;;;;;;;4.37;2.40;;;22.00;36.90;;;;;;5050590;28;20425;-71
2023/02/18 10:16:00;;;;;;;5.10;2.20;;;22.10;37.10;;;;;;5050526;28;20561;-71
2023/02/18 10:18:30;;;;;;;3.73;2.00;;;22.40;36.70;;;;;;5052758;28;20528;-71
2023/02/18 10:21:04;;;;;;;2.60;1.73;;;23.10;36.40;;;;;;5050195;28;20887;-72
2023/02/18 10:23:33;;;;;;;3.07;1.23;;;23.80;35.00;;;;;;5050815;28;20833;-71
2023/02/18 10:26:06;;;;;;;3.60;1.77;;;24.20;33.70;;;;;;5050483;28;20536;-71
2023/02/18 10:28:34;;;;;;;3.00;1.50;;;24.20;33.10;;;;;;5046565;28;20444;-71
2023/02/18 10:31:07;;;;;;;4.50;1.20;;;24.20;32.70;;;;;;5051355;28;20564;-71
2023/02/18 10:33:40;;;;;;;2.10;1.10;;;24.00;32.00;;;;;;5052384;28;20504;-71
2023/02/18 10:36:21;;;;;;;3.13;1.20;;;23.60;32.50;;;;;;5050329;28;20448;-71
2023/02/18 10:39:03;;;;;;;3.43;1.20;;;23.40;33.50;;;;;;5050513;28;20524;-71
2023/02/18 10:41:39;;;;;;;2.80;1.50;;;23.30;33.20;;;;;;5047146;28;20449;-70
2023/02/18 10:44:14;;;;;;;2.10;1.33;;;23.00;33.30;;;;;;5050475;28;20526;-72
2023/02/18 10:46:49;;;;;;;1.97;1.10;;;22.80;33.80;;;;;;5047127;28;20460;-71
2023/02/18 10:49:39;;;;;;;3.77;1.63;;;23.00;33.80;;;;;;5050398;28;20475;-72
2023/02/18 10:52:14;;;;;;;2.47;1.40;;;23.30;33.60;;;;;;5049141;28;20516;-71
2023/02/18 10:54:57;;;;;;;5.90;2.47;;;23.80;33.20;;;;;;5046482;28;20520;-72
2023/02/18 10:57:26;;;;;;;3.60;1.20;;;24.40;33.10;;;;;;5050031;28;20503;-71
2023/02/18 10:59:59;;;;;;;2.30;1.27;;;24.70;32.20;;;;;;5050256;28;20445;-71
2023/02/18 11:02:30;;;;;;;3.53;1.37;;;25.20;32.00;;;;;;5049183;28;21030;-71
2023/02/18 11:05:00;;;;;;;3.20;1.30;;;25.80;31.20;;;;;;5049406;28;20443;-71
2023/02/18 11:07:32;;;;;;;2.20;1.00;;;26.20;30.00;;;;;;5049777;28;20452;-71
2023/02/18 11:10:01;;;;;;;3.40;1.10;;;26.40;29.80;;;;;;5049802;28;20495;-71
2023/02/18 11:12:35;;;;;;;2.50;1.17;;;26.80;29.90;;;;;;5044763;28;20512;-71
2023/02/18 11:15:16;;;;;;;3.10;1.00;;;27.10;29.00;;;;;;5050237;28;20512;-71
2023/02/18 11:17:45;;;;;;;4.00;1.50;;;27.40;28.60;;;;;;5046331;28;20441;-71
2023/02/18 11:20:28;;;;;;;3.67;1.40;;;27.50;28.00;;;;;;5046210;28;20437;-72
2023/02/18 11:22:59;;;;;;;3.37;1.07;;;27.00;27.70;;;;;;5045733;28;20515;-71
2023/02/18 11:25:31;;;;;;;2.30;0.90;;;26.90;28.00;;;;;;5048937;28;20437;-72
2023/02/18 11:28:02;;;;;;;3.97;1.67;;;27.00;29.00;;;;;;5048284;28;20441;-71
2023/02/18 11:30:34;;;;;;;2.20;1.00;;;26.90;28.10;;;;;;5048480;28;20932;-71
2023/02/18 11:33:10;;;;;;;2.57;1.30;;;27.00;28.30;;;;;;5049458;28;20436;-70
2023/02/18 11:35:49;;;;;;;2.70;1.03;;;27.30;28.10;;;;;;5049924;28;20563;-70
2023/02/18 11:38:23;;;;;;;3.90;1.10;;;27.70;28.60;;;;;;5049003;28;20505;-72
2023/02/18 11:40:55;;;;;;;2.47;1.17;;;28.10;27.00;;;;;;5049434;28;20436;-70
2023/02/18 11:43:27;;;;;;;2.53;1.33;;;28.40;26.70;;;;;;5049344;28;20441;-73
2023/02/18 11:46:09;;;;;;;2.63;1.00;;;28.40;25.70;;;;;;5042619;28;20469;-71
2023/02/18 11:48:37;;;;;;;7.53;5.33;;;28.40;26.00;;;;;;5049484;28;20523;-71
2023/02/18 11:51:04;;;;;;;3.43;1.63;;;28.50;25.60;;;;;;5050150;28;20483;-72
2023/02/18 11:53:39;;;;;;;2.83;0.90;;;28.60;25.60;;;;;;5048699;28;20433;-71
2023/02/18 11:56:18;;;;;;;2.47;1.13;;;28.70;25.80;;;;;;5052714;28;20523;-71
2023/02/18 11:58:51;;;;;;;2.60;1.00;;;28.80;26.00;;;;;;5053144;28;20429;-72
2023/02/18 12:01:31;;;;;;;3.00;1.00;;;28.70;25.90;;;;;;5052541;28;20606;-74
2023/02/18 12:04:07;;;;;;;2.47;1.10;;;28.60;25.40;;;;;;5049085;28;20443;-71
2023/02/18 12:06:37;;;;;;;3.63;1.47;;;28.50;25.60;;;;;;5051892;28;20923;-71
2023/02/18 12:09:14;;;;;;;3.27;1.10;;;28.30;25.40;;;;;;5053741;28;20444;-71
2023/02/18 12:11:53;;;;;;;1.90;0.90;;;27.90;24.90;;;;;;5052683;28;20508;-71
2023/02/18 12:14:27;;;;;;;1.97;1.03;;;27.70;25.20;;;;;;5053415;28;20436;-71
2023/02/18 12:17:14;;;;;;;3.20;1.10;;;27.60;25.10;;;;;;5052596;28;20523;-71
2023/02/18 12:19:54;;;;;;;2.00;0.70;;;27.60;24.80;;;;;;5048725;28;20448;-73
2023/02/18 12:22:28;;;;;;;2.03;0.80;;;27.60;24.30;;;;;;5049362;28;20522;-70
2023/02/18 12:25:17;;;;;;;15.73;3.83;;;27.50;24.40;;;;;;5050508;28;20440;-71
2023/02/18 12:27:53;;;;;;;2.47;0.83;;;27.50;24.40;;;;;;5050686;28;21052;-72
2023/02/18 12:30:43;;;;;;;2.90;1.20;;;27.70;23.70;;;;;;5052116;28;20923;-71
2023/02/18 12:33:21;;;;;;;3.10;1.03;;;28.00;23.70;;;;;;5052890;28;20480;-73
2023/02/18 12:36:10;;;;;;;4.00;0.90;;;27.90;23.60;;;;;;5053313;28;20495;-71
2023/02/18 12:38:59;;;;;;;1.97;0.90;;;28.10;23.70;;;;;;5053385;28;20502;-71
2023/02/18 12:41:36;;;;;;;1.80;0.60;;;28.40;23.50;;;;;;5049849;28;20441;-70
2023/02/18 12:44:23;;;;;;;5.93;0.83;;;28.90;23.30;;;;;;5052598;28;20519;-71
2023/02/18 12:47:28;;;;;;;2.27;0.80;;;29.30;23.10;;;;;;5052319;28;20559;-73
2023/02/18 12:50:38;;;;;;;2.20;0.80;;;29.60;22.50;;;;;;5050149;28;20437;-72
2023/02/18 12:53:25;;;;;;;2.67;0.77;;;29.60;22.20;;;;;;5049548;28;20527;-72
2023/02/18 12:56:12;;;;;;;2.83;1.17;;;29.50;22.10;;;;;;5049321;28;20439;-71
2023/02/18 12:58:48;;;;;;;2.17;0.80;;;29.60;22.00;;;;;;5048778;28;20498;-72
2023/02/18 13:01:35;;;;;;;1.70;0.70;;;29.60;21.80;;;;;;5051755;28;20456;-71
2023/02/18 13:04:32;;;;;;;1.70;0.63;;;29.50;21.90;;;;;;5038662;28;20457;-70